sensor_id;sensor_type;location;lat;lon;timestamp;P1;durP1;ratioP1;P2;durP2;ratioP2
36205;SDS011;22242;48.796;9.930;2022-07-29T00:00:47;4.15;;;3.85;;
36205;SDS011;22242;48.796;9.930;2022-07-29T00:03:15;4.97;;;4.15;;
36205;SDS011;22242;48.796;9.930;2022-07-29T00:05:43;5.93;;;4.45;;
36205;SDS011;22242;48.796;9.930;2022-07-29T00:08:11;4.78;;;3.97;;
36205;SDS011;22242;48.796;9.930;2022-07-29T00:10:37;6.72;;;4.30;;
36205;SDS011;22242;48.796;9.930;2022-07-29T00:13:05;4.93;;;4.43;;
36205;SDS011;22242;48.796;9.930;2022-07-29T00:15:31;5.25;;;4.60;;
36205;SDS011;22242;48.796;9.930;2022-07-29T00:17:59;7.55;;;4.72;;
36205;SDS011;22242;48.796;9.930;2022-07-29T00:20:25;7.13;;;4.75;;
36205;SDS011;22242;48.796;9.930;2022-07-29T00:22:54;6.90;;;4.28;;
36205;SDS011;22242;48.796;9.930;2022-07-29T00:25:21;4.03;;;3.60;;
36205;SDS011;22242;48.796;9.930;2022-07-29T00:27:48;3.95;;;3.60;;
36205;SDS011;22242;48.796;9.930;2022-07-29T00:30:15;4.25;;;3.70;;
36205;SDS011;22242;48.796;9.930;2022-07-29T00:32:42;4.30;;;3.90;;
36205;SDS011;22242;48.796;9.930;2022-07-29T00:35:09;4.47;;;3.38;;
36205;SDS011;22242;48.796;9.930;2022-07-29T00:37:55;5.75;;;4.03;;
36205;SDS011;22242;48.796;9.930;2022-07-29T00:40:21;3.30;;;3.10;;
36205;SDS011;22242;48.796;9.930;2022-07-29T00:42:49;5.75;;;3.30;;
36205;SDS011;22242;48.796;9.930;2022-07-29T00:45:17;3.58;;;3.33;;
36205;SDS011;22242;48.796;9.930;2022-07-29T00:47:45;3.70;;;3.17;;
36205;SDS011;22242;48.796;9.930;2022-07-29T00:50:12;7.45;;;3.20;;
36205;SDS011;22242;48.796;9.930;2022-07-29T00:52:40;3.10;;;2.80;;
36205;SDS011;22242;48.796;9.930;2022-07-29T00:55:10;3.00;;;2.80;;
36205;SDS011;22242;48.796;9.930;2022-07-29T00:57:38;3.40;;;3.10;;
36205;SDS011;22242;48.796;9.930;2022-07-29T01:00:08;3.75;;;2.83;;
36205;SDS011;22242;48.796;9.930;2022-07-29T01:02:36;4.18;;;2.58;;
36205;SDS011;22242;48.796;9.930;2022-07-29T01:05:04;3.75;;;2.47;;
36205;SDS011;22242;48.796;9.930;2022-07-29T01:07:32;2.65;;;2.35;;
36205;SDS011;22242;48.796;9.930;2022-07-29T01:10:01;2.80;;;2.60;;
36205;SDS011;22242;48.796;9.930;2022-07-29T01:12:31;2.05;;;1.95;;
36205;SDS011;22242;48.796;9.930;2022-07-29T01:15:00;3.72;;;2.55;;
36205;SDS011;22242;48.796;9.930;2022-07-29T01:17:31;4.95;;;2.70;;
36205;SDS011;22242;48.796;9.930;2022-07-29T01:20:03;2.50;;;2.30;;
36205;SDS011;22242;48.796;9.930;2022-07-29T01:22:40;2.70;;;2.50;;
36205;SDS011;22242;48.796;9.930;2022-07-29T01:31:35;3.17;;;1.80;;
36205;SDS011;22242;48.796;9.930;2022-07-29T01:34:11;2.42;;;2.15;;
36205;SDS011;22242;48.796;9.930;2022-07-29T01:36:45;2.10;;;1.95;;
36205;SDS011;22242;48.796;9.930;2022-07-29T01:39:18;2.00;;;1.90;;
36205;SDS011;22242;48.796;9.930;2022-07-29T01:41:50;4.07;;;2.22;;
36205;SDS011;22242;48.796;9.930;2022-07-29T01:44:23;3.83;;;2.30;;
36205;SDS011;22242;48.796;9.930;2022-07-29T01:46:58;4.55;;;2.30;;
36205;SDS011;22242;48.796;9.930;2022-07-29T01:49:33;5.82;;;2.38;;
36205;SDS011;22242;48.796;9.930;2022-07-29T01:54:34;2.38;;;2.20;;
36205;SDS011;22242;48.796;9.930;2022-07-29T01:57:04;2.60;;;2.40;;
36205;SDS011;22242;48.796;9.930;2022-07-29T01:59:34;2.10;;;1.90;;
36205;SDS011;22242;48.796;9.930;2022-07-29T02:02:04;2.13;;;2.03;;
36205;SDS011;22242;48.796;9.930;2022-07-29T02:04:33;2.38;;;1.90;;
36205;SDS011;22242;48.796;9.930;2022-07-29T02:07:03;2.20;;;2.00;;
36205;SDS011;22242;48.796;9.930;2022-07-29T02:09:34;2.35;;;1.67;;
36205;SDS011;22242;48.796;9.930;2022-07-29T02:12:03;3.88;;;2.28;;
36205;SDS011;22242;48.796;9.930;2022-07-29T02:14:34;2.90;;;2.70;;
36205;SDS011;22242;48.796;9.930;2022-07-29T02:17:05;3.60;;;2.97;;
36205;SDS011;22242;48.796;9.930;2022-07-29T02:19:33;3.22;;;2.72;;
36205;SDS011;22242;48.796;9.930;2022-07-29T02:22:02;3.33;;;2.40;;
36205;SDS011;22242;48.796;9.930;2022-07-29T02:24:31;3.65;;;2.70;;
36205;SDS011;22242;48.796;9.930;2022-07-29T02:27:02;4.32;;;3.40;;
36205;SDS011;22242;48.796;9.930;2022-07-29T02:29:30;3.80;;;3.35;;
36205;SDS011;22242;48.796;9.930;2022-07-29T02:31:58;5.25;;;3.50;;
36205;SDS011;22242;48.796;9.930;2022-07-29T02:34:28;6.03;;;4.13;;
36205;SDS011;22242;48.796;9.930;2022-07-29T02:36:56;6.18;;;3.72;;
36205;SDS011;22242;48.796;9.930;2022-07-29T02:39:22;4.03;;;3.70;;
36205;SDS011;22242;48.796;9.930;2022-07-29T02:41:51;5.75;;;4.32;;
36205;SDS011;22242;48.796;9.930;2022-07-29T02:44:21;4.80;;;2.65;;
36205;SDS011;22242;48.796;9.930;2022-07-29T02:46:50;3.97;;;3.00;;
36205;SDS011;22242;48.796;9.930;2022-07-29T02:49:25;3.53;;;2.58;;
36205;SDS011;22242;48.796;9.930;2022-07-29T02:52:00;2.80;;;2.60;;
36205;SDS011;22242;48.796;9.930;2022-07-29T02:54:31;3.65;;;2.50;;
36205;SDS011;22242;48.796;9.930;2022-07-29T02:57:04;3.63;;;2.90;;
36205;SDS011;22242;48.796;9.930;2022-07-29T02:59:36;3.07;;;2.87;;
36205;SDS011;22242;48.796;9.930;2022-07-29T03:02:07;5.93;;;2.65;;
36205;SDS011;22242;48.796;9.930;2022-07-29T03:04:37;3.47;;;3.03;;
36205;SDS011;22242;48.796;9.930;2022-07-29T03:07:07;3.97;;;2.90;;
36205;SDS011;22242;48.796;9.930;2022-07-29T03:09:37;4.32;;;3.20;;
36205;SDS011;22242;48.796;9.930;2022-07-29T03:12:04;3.63;;;3.30;;
36205;SDS011;22242;48.796;9.930;2022-07-29T03:14:32;5.43;;;3.45;;
36205;SDS011;22242;48.796;9.930;2022-07-29T03:16:59;3.50;;;3.08;;
36205;SDS011;22242;48.796;9.930;2022-07-29T03:19:26;4.07;;;3.50;;
36205;SDS011;22242;48.796;9.930;2022-07-29T03:21:57;4.38;;;3.45;;
36205;SDS011;22242;48.796;9.930;2022-07-29T03:24:25;4.13;;;3.08;;
36205;SDS011;22242;48.796;9.930;2022-07-29T03:26:54;3.75;;;2.90;;
36205;SDS011;22242;48.796;9.930;2022-07-29T03:29:21;4.30;;;3.00;;
36205;SDS011;22242;48.796;9.930;2022-07-29T03:31:48;3.70;;;3.10;;
36205;SDS011;22242;48.796;9.930;2022-07-29T03:34:15;4.03;;;3.60;;
36205;SDS011;22242;48.796;9.930;2022-07-29T03:36:42;3.75;;;3.30;;
36205;SDS011;22242;48.796;9.930;2022-07-29T03:39:11;5.47;;;3.42;;
36205;SDS011;22242;48.796;9.930;2022-07-29T03:41:41;4.03;;;3.63;;
36205;SDS011;22242;48.796;9.930;2022-07-29T03:44:10;3.47;;;3.17;;
36205;SDS011;22242;48.796;9.930;2022-07-29T03:46:38;3.78;;;3.47;;
36205;SDS011;22242;48.796;9.930;2022-07-29T03:49:05;3.17;;;2.88;;
36205;SDS011;22242;48.796;9.930;2022-07-29T03:51:34;3.47;;;3.00;;
36205;SDS011;22242;48.796;9.930;2022-07-29T03:54:01;3.15;;;2.95;;
36205;SDS011;22242;48.796;9.930;2022-07-29T03:56:31;4.72;;;3.38;;
36205;SDS011;22242;48.796;9.930;2022-07-29T03:59:01;4.07;;;3.20;;
36205;SDS011;22242;48.796;9.930;2022-07-29T04:01:29;4.00;;;3.10;;
36205;SDS011;22242;48.796;9.930;2022-07-29T04:03:57;4.60;;;3.05;;
36205;SDS011;22242;48.796;9.930;2022-07-29T04:06:24;4.30;;;2.72;;
36205;SDS011;22242;48.796;9.930;2022-07-29T04:08:51;4.32;;;3.00;;
36205;SDS011;22242;48.796;9.930;2022-07-29T04:11:18;4.65;;;2.88;;
36205;SDS011;22242;48.796;9.930;2022-07-29T04:13:47;3.55;;;2.95;;
36205;SDS011;22242;48.796;9.930;2022-07-29T04:16:13;4.75;;;3.45;;
36205;SDS011;22242;48.796;9.930;2022-07-29T04:18:40;5.82;;;3.00;;
36205;SDS011;22242;48.796;9.930;2022-07-29T04:21:07;3.00;;;2.80;;
36205;SDS011;22242;48.796;9.930;2022-07-29T04:23:34;3.28;;;2.95;;
36205;SDS011;22242;48.796;9.930;2022-07-29T04:26:01;3.40;;;3.10;;
36205;SDS011;22242;48.796;9.930;2022-07-29T04:28:28;4.10;;;2.70;;
36205;SDS011;22242;48.796;9.930;2022-07-29T04:30:56;3.28;;;2.97;;
36205;SDS011;22242;48.796;9.930;2022-07-29T04:33:23;3.40;;;2.83;;
36205;SDS011;22242;48.796;9.930;2022-07-29T04:35:50;4.45;;;3.08;;
36205;SDS011;22242;48.796;9.930;2022-07-29T04:38:17;3.00;;;2.70;;
36205;SDS011;22242;48.796;9.930;2022-07-29T04:40:44;3.05;;;2.70;;
36205;SDS011;22242;48.796;9.930;2022-07-29T04:43:11;3.08;;;2.78;;
36205;SDS011;22242;48.796;9.930;2022-07-29T04:45:37;2.90;;;2.60;;
36205;SDS011;22242;48.796;9.930;2022-07-29T04:48:06;3.05;;;2.60;;
36205;SDS011;22242;48.796;9.930;2022-07-29T04:50:33;2.70;;;2.40;;
36205;SDS011;22242;48.796;9.930;2022-07-29T04:53:00;2.83;;;2.40;;
36205;SDS011;22242;48.796;9.930;2022-07-29T04:55:27;4.60;;;2.60;;
36205;SDS011;22242;48.796;9.930;2022-07-29T04:57:53;4.85;;;2.60;;
36205;SDS011;22242;48.796;9.930;2022-07-29T05:00:20;3.33;;;2.17;;
36205;SDS011;22242;48.796;9.930;2022-07-29T05:02:48;2.25;;;2.05;;
36205;SDS011;22242;48.796;9.930;2022-07-29T05:05:20;3.45;;;2.03;;
36205;SDS011;22242;48.796;9.930;2022-07-29T05:07:47;2.20;;;1.98;;
36205;SDS011;22242;48.796;9.930;2022-07-29T05:10:14;2.60;;;1.80;;
36205;SDS011;22242;48.796;9.930;2022-07-29T05:12:41;1.70;;;1.60;;
36205;SDS011;22242;48.796;9.930;2022-07-29T05:15:08;2.38;;;1.75;;
36205;SDS011;22242;48.796;9.930;2022-07-29T05:17:38;2.33;;;1.70;;
36205;SDS011;22242;48.796;9.930;2022-07-29T05:20:06;1.65;;;1.55;;
36205;SDS011;22242;48.796;9.930;2022-07-29T05:22:35;3.00;;;1.90;;
